createdAt,value
2023-05-22T00:03:12.677Z,76.88
2023-05-22T00:13:14.822Z,78.99
2023-05-22T00:23:17.181Z,77.03
2023-05-22T00:33:19.360Z,77.48
2023-05-22T00:43:21.511Z,76.98
2023-05-22T00:53:25.287Z,78.01
2023-05-22T01:03:29.883Z,77.98
2023-05-22T01:13:46.919Z,77.52
2023-05-22T01:24:16.339Z,76.69
2023-05-22T01:34:19.299Z,75.85
2023-05-22T01:44:21.632Z,76.10
2023-05-22T01:54:33.018Z,75.92
2023-05-22T02:04:38.848Z,76.35
2023-05-22T02:14:43.447Z,75.86
2023-05-22T02:24:50.000Z,74.98
2023-05-22T02:34:54.770Z,75.70
2023-05-22T02:44:57.296Z,74.41
2023-05-22T02:55:00.170Z,76.20
2023-05-22T03:05:02.988Z,76.24
2023-05-22T03:15:05.916Z,76.24
2023-05-22T03:25:09.887Z,76.10
2023-05-22T03:35:15.706Z,76.10
2023-05-22T03:45:18.163Z,76.20
2023-05-22T03:55:20.397Z,79.50
2023-05-22T04:05:22.795Z,77.75
2023-05-22T04:15:25.450Z,76.44
2023-05-22T04:25:27.804Z,77.80
2023-05-22T04:35:30.325Z,76.66
2023-05-22T04:45:33.061Z,80.06
2023-05-22T04:55:35.672Z,76.81
2023-05-22T05:05:37.958Z,68.69
2023-05-22T05:15:40.927Z,77.52
2023-05-22T05:25:43.524Z,78.12
2023-05-22T05:35:45.933Z,77.21
2023-05-22T05:45:49.358Z,76.51
2023-05-22T05:55:51.801Z,76.78
2023-05-22T06:05:55.140Z,77.25
2023-05-22T06:16:16.774Z,75.99
2023-05-22T06:26:19.314Z,75.80
2023-05-22T06:36:22.274Z,76.90
2023-05-22T06:46:25.946Z,75.15
2023-05-22T06:56:33.141Z,76.01
2023-05-22T07:06:41.846Z,75.53
2023-05-22T07:16:45.173Z,75.82
2023-05-22T07:26:49.748Z,72.12
2023-05-22T07:36:54.068Z,72.72
2023-05-22T07:46:56.646Z,71.03
2023-05-22T07:57:03.467Z,70.16
2023-05-22T08:07:10.146Z,69.01
2023-05-22T08:17:12.385Z,67.86
2023-05-22T08:27:14.795Z,64.56
2023-05-22T08:37:16.993Z,63.98
2023-05-22T08:47:22.967Z,61.25
2023-05-22T08:57:26.068Z,61.35
2023-05-22T09:07:29.954Z,60.21
2023-05-22T09:17:32.617Z,57.76
2023-05-22T09:27:34.953Z,59.09
2023-05-22T09:37:37.164Z,56.08
2023-05-22T09:47:40.298Z,57.18
2023-05-22T09:57:44.320Z,54.43
2023-05-22T10:07:52.081Z,52.54
2023-05-22T10:17:54.894Z,54.57
2023-05-22T10:27:57.726Z,52.53
2023-05-22T10:38:20.921Z,52.20
2023-05-22T10:48:23.234Z,50.77
2023-05-22T10:58:28.146Z,52.92
2023-05-22T11:08:37.744Z,51.84
2023-05-22T11:18:39.995Z,50.31
2023-05-22T11:28:43.827Z,49.38
2023-05-22T11:38:46.170Z,49.71
2023-05-22T11:48:48.575Z,51.89
2023-05-22T11:58:51.673Z,49.36
2023-05-22T12:08:54.234Z,50.53
2023-05-22T12:18:57.457Z,47.90
2023-05-22T12:28:59.709Z,51.50
2023-05-22T12:39:01.989Z,50.01
2023-05-22T12:49:04.402Z,49.64
2023-05-22T12:59:06.665Z,48.57
2023-05-22T13:09:08.824Z,50.11
2023-05-22T13:19:11.111Z,49.23
2023-05-22T13:29:13.474Z,49.29
2023-05-22T13:39:15.691Z,47.14
2023-05-22T13:49:18.238Z,48.47
2023-05-22T13:59:20.468Z,46.55
2023-05-22T14:09:23.220Z,47.85
2023-05-22T14:19:25.619Z,47.02
2023-05-22T14:29:28.390Z,45.99
2023-05-22T14:39:30.581Z,48.08
2023-05-22T14:49:32.789Z,46.35
2023-05-22T14:59:35.100Z,44.44
2023-05-22T15:09:37.367Z,45.24
2023-05-22T15:19:39.729Z,45.30
2023-05-22T15:29:41.994Z,46.34
2023-05-22T15:39:44.227Z,43.64
2023-05-22T15:49:46.441Z,42.13
2023-05-22T15:59:50.610Z,41.88
2023-05-22T16:09:52.875Z,39.97
2023-05-22T16:19:55.069Z,41.87
2023-05-22T16:29:57.321Z,44.71
2023-05-22T16:39:59.678Z,53.26
2023-05-22T16:50:02.052Z,57.56
2023-05-22T17:00:06.702Z,57.44
2023-05-22T17:10:09.521Z,57.00
2023-05-22T17:20:12.680Z,59.09
2023-05-22T17:30:15.187Z,61.07
2023-05-22T17:40:18.224Z,60.03
2023-05-22T17:50:21.018Z,59.98
2023-05-22T18:00:23.363Z,58.90
2023-05-22T18:10:25.798Z,59.29
2023-05-22T18:20:28.011Z,62.60
2023-05-22T18:30:30.474Z,63.38
2023-05-22T18:40:32.666Z,61.04
2023-05-22T18:50:34.781Z,58.96
2023-05-22T19:00:39.139Z,62.63
2023-05-22T19:10:42.129Z,63.66
2023-05-22T19:20:44.706Z,64.17
2023-05-22T19:30:47.147Z,65.11
2023-05-22T19:40:49.371Z,67.33
2023-05-22T19:50:52.173Z,66.72
2023-05-22T20:00:54.430Z,66.21
2023-05-22T20:10:56.645Z,67.73
2023-05-22T20:20:59.829Z,65.98
2023-05-22T20:31:02.104Z,66.08
2023-05-22T20:41:08.107Z,64.12
2023-05-22T20:51:11.318Z,60.89
2023-05-22T21:01:13.643Z,58.30
2023-05-22T21:11:16.866Z,56.81
2023-05-22T21:21:21.929Z,55.30
2023-05-22T21:31:24.053Z,55.22
2023-05-22T21:41:27.491Z,58.88
2023-05-22T21:51:29.666Z,57.36
2023-05-22T22:01:31.818Z,58.86
2023-05-22T22:11:33.938Z,60.12
2023-05-22T22:21:36.284Z,60.54
2023-05-22T22:31:38.481Z,61.43
2023-05-22T22:41:40.630Z,61.67
2023-05-22T22:51:42.930Z,61.10
2023-05-22T23:01:45.128Z,63.29
2023-05-22T23:11:47.249Z,64.07
2023-05-22T23:21:49.380Z,64.59
2023-05-22T23:31:51.526Z,65.88
2023-05-22T23:41:56.346Z,64.23
2023-05-22T23:51:58.489Z,64.39
